Airfield :







YOU CAN JOIN US ON...

 
LOGIN :

Register | Disclaimer

   EN    FR    IT 

 









Legend :    VFR   Marginal VFR   IFR   Intensive IFR   Very Intensive IFR
Visi :
Ceiling :
>= 8 km
>= 3000ft
5 to 8 km
1000 to 3000 ft
1500m to 5 km
500 to 1000 ft
800 to 1500m
200 to 500 ft
< 800m
< 200 ft
Symbols :   Thunderstorms  Fog  Heavy snow  Heavy precipitations  Wind > 20 kt







- Airport Elevation : 1270 ft
- IATA code : YMT


CYMT - Chapais

CURRENT METAR :
  • 171300Z AUTO 32014G24KT 280V350 9SM CLR 14/07 A2990 RMK SLP128 DENSITY ALT 1500FT

EXPIRED METARs :
  • 171200Z AUTO 30017G26KT 270V340 9SM SCT024 13/07 A2988 RMK SLP122 DENSITY ALT 1300FT
  • 171151Z AUTO 31015G29KT 9SM SCT024 12/07 A2987 RMK SLP121
  • 171100Z AUTO 30011G21KT 270V330 9SM BKN022 12/07 A2985 RMK SLP115

TAF TAF CYMT
Valid from the 17 at 12:00 until the 18 at 00:00 UTC


171138Z 1712/1724 30012G22KT P6SM BKN020
TEMPO 1712/1714 SCT025
FM171400 33010G20KT P6SM SCT030
FM171800 33010G20KT P6SM FEW050
BECMG 1720/1722 33008KT RMK FCST BASED ON AUTO OBS. NXT FCST BY 171800Z
CZUL FIR / North America



MET'MAP, your aeronautical weather chart ! - Copyright ORBIFLY December 2007 - Disclaimer

ORBIFLY MET'MAP TEAM :

Programming & Development : Alexandra Zaïnal
Concept & Development : Baudouin d'Aumeries
Co-Development & Prog : Marc-Olivier Méhu
Technical & hardware support : Manuel Goepfert

Contact : metmap@orbifly.com




SOURCES & CREDITS :

   NOAA